sensor_id;sensor_type;location;lat;lon;timestamp;P1;durP1;ratioP1;P2;durP2;ratioP2
4122;SDS011;2075;51.062;6.920;2022-11-06T00:01:42;15.30;;;9.50;;
4122;SDS011;2075;51.062;6.920;2022-11-06T00:04:28;17.60;;;8.97;;
4122;SDS011;2075;51.062;6.920;2022-11-06T00:07:14;12.47;;;8.50;;
4122;SDS011;2075;51.062;6.920;2022-11-06T00:10:00;15.03;;;9.23;;
4122;SDS011;2075;51.062;6.920;2022-11-06T00:12:46;15.67;;;8.63;;
4122;SDS011;2075;51.062;6.920;2022-11-06T00:15:32;14.10;;;9.00;;
4122;SDS011;2075;51.062;6.920;2022-11-06T00:18:18;14.10;;;8.83;;
4122;SDS011;2075;51.062;6.920;2022-11-06T00:21:06;16.87;;;9.17;;
4122;SDS011;2075;51.062;6.920;2022-11-06T00:23:53;12.73;;;8.10;;
4122;SDS011;2075;51.062;6.920;2022-11-06T00:26:41;13.97;;;8.80;;
4122;SDS011;2075;51.062;6.920;2022-11-06T00:29:27;13.27;;;8.30;;
4122;SDS011;2075;51.062;6.920;2022-11-06T00:32:12;21.33;;;8.23;;
4122;SDS011;2075;51.062;6.920;2022-11-06T00:34:58;14.77;;;7.77;;
4122;SDS011;2075;51.062;6.920;2022-11-06T00:37:43;14.63;;;7.37;;
4122;SDS011;2075;51.062;6.920;2022-11-06T00:40:29;17.40;;;8.13;;
4122;SDS011;2075;51.062;6.920;2022-11-06T00:43:16;17.67;;;7.90;;
4122;SDS011;2075;51.062;6.920;2022-11-06T00:46:01;12.40;;;7.60;;
4122;SDS011;2075;51.062;6.920;2022-11-06T00:48:48;14.20;;;7.27;;
4122;SDS011;2075;51.062;6.920;2022-11-06T00:51:34;13.70;;;7.63;;
4122;SDS011;2075;51.062;6.920;2022-11-06T00:54:22;9.30;;;6.73;;
4122;SDS011;2075;51.062;6.920;2022-11-06T00:57:07;19.27;;;8.50;;
4122;SDS011;2075;51.062;6.920;2022-11-06T00:59:54;17.53;;;9.10;;
4122;SDS011;2075;51.062;6.920;2022-11-06T01:02:39;17.40;;;7.10;;
4122;SDS011;2075;51.062;6.920;2022-11-06T01:05:25;14.27;;;6.87;;
4122;SDS011;2075;51.062;6.920;2022-11-06T01:08:10;20.80;;;8.00;;
4122;SDS011;2075;51.062;6.920;2022-11-06T01:10:56;12.57;;;7.70;;
4122;SDS011;2075;51.062;6.920;2022-11-06T01:13:41;9.30;;;6.30;;
4122;SDS011;2075;51.062;6.920;2022-11-06T01:16:29;17.27;;;7.10;;
4122;SDS011;2075;51.062;6.920;2022-11-06T01:19:15;12.70;;;7.10;;
4122;SDS011;2075;51.062;6.920;2022-11-06T01:22:02;11.53;;;7.20;;
4122;SDS011;2075;51.062;6.920;2022-11-06T01:24:48;21.80;;;7.40;;
4122;SDS011;2075;51.062;6.920;2022-11-06T01:27:33;13.80;;;6.70;;
4122;SDS011;2075;51.062;6.920;2022-11-06T01:30:18;10.80;;;6.40;;
4122;SDS011;2075;51.062;6.920;2022-11-06T01:33:07;9.57;;;6.13;;
4122;SDS011;2075;51.062;6.920;2022-11-06T01:35:52;16.63;;;6.73;;
4122;SDS011;2075;51.062;6.920;2022-11-06T01:38:39;9.93;;;5.80;;
4122;SDS011;2075;51.062;6.920;2022-11-06T01:41:25;10.53;;;5.87;;
4122;SDS011;2075;51.062;6.920;2022-11-06T01:47:34;10.07;;;5.20;;
4122;SDS011;2075;51.062;6.920;2022-11-06T01:50:21;9.03;;;5.67;;
4122;SDS011;2075;51.062;6.920;2022-11-06T01:53:08;11.53;;;5.83;;
4122;SDS011;2075;51.062;6.920;2022-11-06T01:55:55;8.97;;;5.10;;
4122;SDS011;2075;51.062;6.920;2022-11-06T01:58:44;8.60;;;5.90;;
4122;SDS011;2075;51.062;6.920;2022-11-06T02:01:31;7.80;;;5.07;;
4122;SDS011;2075;51.062;6.920;2022-11-06T02:04:18;11.30;;;5.20;;
4122;SDS011;2075;51.062;6.920;2022-11-06T02:07:07;11.30;;;5.50;;
4122;SDS011;2075;51.062;6.920;2022-11-06T02:09:54;6.90;;;4.77;;
4122;SDS011;2075;51.062;6.920;2022-11-06T02:12:43;9.23;;;4.83;;
4122;SDS011;2075;51.062;6.920;2022-11-06T02:15:37;6.70;;;4.83;;
4122;SDS011;2075;51.062;6.920;2022-11-06T02:18:43;8.90;;;4.43;;
4122;SDS011;2075;51.062;6.920;2022-11-06T02:21:53;7.13;;;4.60;;
4122;SDS011;2075;51.062;6.920;2022-11-06T02:25:09;7.93;;;4.97;;
4122;SDS011;2075;51.062;6.920;2022-11-06T02:28:00;8.40;;;4.63;;
4122;SDS011;2075;51.062;6.920;2022-11-06T02:30:52;7.17;;;4.90;;
4122;SDS011;2075;51.062;6.920;2022-11-06T02:33:41;12.90;;;4.80;;
4122;SDS011;2075;51.062;6.920;2022-11-06T02:36:32;8.10;;;5.10;;
4122;SDS011;2075;51.062;6.920;2022-11-06T02:39:22;9.30;;;4.43;;
4122;SDS011;2075;51.062;6.920;2022-11-06T02:42:11;10.10;;;4.80;;
4122;SDS011;2075;51.062;6.920;2022-11-06T02:45:01;11.73;;;5.60;;
4122;SDS011;2075;51.062;6.920;2022-11-06T02:47:48;5.03;;;3.93;;
4122;SDS011;2075;51.062;6.920;2022-11-06T02:50:39;6.53;;;4.70;;
4122;SDS011;2075;51.062;6.920;2022-11-06T02:53:28;16.57;;;5.43;;
4122;SDS011;2075;51.062;6.920;2022-11-06T02:56:17;10.93;;;5.27;;
4122;SDS011;2075;51.062;6.920;2022-11-06T02:59:08;6.47;;;4.07;;
4122;SDS011;2075;51.062;6.920;2022-11-06T03:01:59;9.60;;;4.90;;
4122;SDS011;2075;51.062;6.920;2022-11-06T03:04:49;10.50;;;5.13;;
4122;SDS011;2075;51.062;6.920;2022-11-06T03:07:41;8.17;;;4.50;;
4122;SDS011;2075;51.062;6.920;2022-11-06T03:10:32;8.27;;;4.97;;
4122;SDS011;2075;51.062;6.920;2022-11-06T03:13:26;9.03;;;4.60;;
4122;SDS011;2075;51.062;6.920;2022-11-06T03:16:22;9.60;;;4.67;;
4122;SDS011;2075;51.062;6.920;2022-11-06T03:19:17;9.33;;;4.70;;
4122;SDS011;2075;51.062;6.920;2022-11-06T03:22:10;11.07;;;4.60;;
4122;SDS011;2075;51.062;6.920;2022-11-06T03:24:58;8.63;;;4.80;;
4122;SDS011;2075;51.062;6.920;2022-11-06T03:27:55;8.67;;;4.53;;
4122;SDS011;2075;51.062;6.920;2022-11-06T03:30:48;11.73;;;4.40;;
4122;SDS011;2075;51.062;6.920;2022-11-06T03:33:36;12.40;;;4.73;;
4122;SDS011;2075;51.062;6.920;2022-11-06T03:36:30;5.23;;;3.80;;
4122;SDS011;2075;51.062;6.920;2022-11-06T03:39:19;8.83;;;4.50;;
4122;SDS011;2075;51.062;6.920;2022-11-06T03:42:11;10.73;;;4.27;;
4122;SDS011;2075;51.062;6.920;2022-11-06T03:45:00;8.60;;;4.40;;
4122;SDS011;2075;51.062;6.920;2022-11-06T03:47:53;9.03;;;4.97;;
4122;SDS011;2075;51.062;6.920;2022-11-06T03:50:43;7.70;;;4.10;;
4122;SDS011;2075;51.062;6.920;2022-11-06T03:53:40;9.27;;;4.00;;
4122;SDS011;2075;51.062;6.920;2022-11-06T03:56:32;8.00;;;4.57;;
4122;SDS011;2075;51.062;6.920;2022-11-06T03:59:21;10.03;;;4.40;;
4122;SDS011;2075;51.062;6.920;2022-11-06T04:02:09;8.70;;;4.60;;
4122;SDS011;2075;51.062;6.920;2022-11-06T04:05:01;5.33;;;3.43;;
4122;SDS011;2075;51.062;6.920;2022-11-06T04:07:51;12.43;;;4.40;;
4122;SDS011;2075;51.062;6.920;2022-11-06T04:10:59;9.17;;;4.20;;
4122;SDS011;2075;51.062;6.920;2022-11-06T04:14:05;5.07;;;3.97;;
4122;SDS011;2075;51.062;6.920;2022-11-06T04:16:53;11.90;;;3.93;;
4122;SDS011;2075;51.062;6.920;2022-11-06T04:19:46;11.40;;;4.30;;
4122;SDS011;2075;51.062;6.920;2022-11-06T04:22:40;12.37;;;3.87;;
4122;SDS011;2075;51.062;6.920;2022-11-06T04:25:33;8.03;;;4.43;;
4122;SDS011;2075;51.062;6.920;2022-11-06T04:28:46;6.20;;;3.70;;
4122;SDS011;2075;51.062;6.920;2022-11-06T04:31:36;7.37;;;4.20;;
4122;SDS011;2075;51.062;6.920;2022-11-06T04:34:28;8.93;;;3.73;;
4122;SDS011;2075;51.062;6.920;2022-11-06T04:37:24;7.30;;;3.80;;
4122;SDS011;2075;51.062;6.920;2022-11-06T04:40:16;9.47;;;3.90;;
4122;SDS011;2075;51.062;6.920;2022-11-06T04:43:09;5.23;;;3.23;;
4122;SDS011;2075;51.062;6.920;2022-11-06T04:46:06;7.33;;;3.80;;
4122;SDS011;2075;51.062;6.920;2022-11-06T04:48:54;12.17;;;3.40;;
4122;SDS011;2075;51.062;6.920;2022-11-06T04:51:41;4.77;;;3.63;;
4122;SDS011;2075;51.062;6.920;2022-11-06T04:54:28;10.90;;;4.00;;
4122;SDS011;2075;51.062;6.920;2022-11-06T04:57:15;9.40;;;4.30;;
4122;SDS011;2075;51.062;6.920;2022-11-06T05:00:00;11.17;;;3.90;;
4122;SDS011;2075;51.062;6.920;2022-11-06T05:02:48;6.10;;;3.30;;
4122;SDS011;2075;51.062;6.920;2022-11-06T05:05:33;3.50;;;3.20;;
4122;SDS011;2075;51.062;6.920;2022-11-06T05:08:19;14.90;;;5.50;;
4122;SDS011;2075;51.062;6.920;2022-11-06T05:11:04;10.40;;;3.43;;
4122;SDS011;2075;51.062;6.920;2022-11-06T05:13:52;8.33;;;3.60;;
4122;SDS011;2075;51.062;6.920;2022-11-06T05:16:37;6.97;;;3.77;;
4122;SDS011;2075;51.062;6.920;2022-11-06T05:19:24;6.70;;;3.90;;
4122;SDS011;2075;51.062;6.920;2022-11-06T05:22:09;9.80;;;3.53;;
4122;SDS011;2075;51.062;6.920;2022-11-06T05:25:12;19.77;;;4.10;;
4122;SDS011;2075;51.062;6.920;2022-11-06T05:27:58;10.63;;;3.80;;
4122;SDS011;2075;51.062;6.920;2022-11-06T05:30:44;10.63;;;4.07;;
4122;SDS011;2075;51.062;6.920;2022-11-06T05:33:29;6.27;;;3.63;;
4122;SDS011;2075;51.062;6.920;2022-11-06T05:36:16;6.10;;;3.80;;
4122;SDS011;2075;51.062;6.920;2022-11-06T05:39:01;5.67;;;3.60;;
4122;SDS011;2075;51.062;6.920;2022-11-06T05:41:47;9.63;;;4.03;;
4122;SDS011;2075;51.062;6.920;2022-11-06T05:44:32;8.30;;;3.40;;
4122;SDS011;2075;51.062;6.920;2022-11-06T05:47:18;6.10;;;4.10;;
4122;SDS011;2075;51.062;6.920;2022-11-06T05:50:03;7.60;;;3.63;;
4122;SDS011;2075;51.062;6.920;2022-11-06T05:52:50;10.67;;;4.00;;
4122;SDS011;2075;51.062;6.920;2022-11-06T05:55:35;13.20;;;4.17;;
4122;SDS011;2075;51.062;6.920;2022-11-06T05:58:21;7.23;;;3.80;;
4122;SDS011;2075;51.062;6.920;2022-11-06T06:01:06;10.83;;;4.50;;
4122;SDS011;2075;51.062;6.920;2022-11-06T06:03:52;5.03;;;3.40;;
4122;SDS011;2075;51.062;6.920;2022-11-06T06:06:37;7.53;;;3.40;;
4122;SDS011;2075;51.062;6.920;2022-11-06T06:09:24;6.10;;;4.07;;
4122;SDS011;2075;51.062;6.920;2022-11-06T06:12:10;4.67;;;3.87;;
4122;SDS011;2075;51.062;6.920;2022-11-06T06:14:56;7.40;;;3.63;;
4122;SDS011;2075;51.062;6.920;2022-11-06T06:17:42;10.60;;;3.43;;
4122;SDS011;2075;51.062;6.920;2022-11-06T06:20:27;5.93;;;3.60;;
4122;SDS011;2075;51.062;6.920;2022-11-06T06:23:13;6.90;;;3.20;;
4122;SDS011;2075;51.062;6.920;2022-11-06T06:25:59;8.33;;;3.27;;
4122;SDS011;2075;51.062;6.920;2022-11-06T06:28:46;6.27;;;3.63;;
4122;SDS011;2075;51.062;6.920;2022-11-06T06:31:32;7.80;;;3.30;;
4122;SDS011;2075;51.062;6.920;2022-11-06T06:34:17;6.87;;;3.23;;
4122;SDS011;2075;51.062;6.920;2022-11-06T06:37:03;6.50;;;4.00;;
4122;SDS011;2075;51.062;6.920;2022-11-06T06:39:48;10.63;;;3.63;;
4122;SDS011;2075;51.062;6.920;2022-11-06T06:42:35;10.87;;;3.93;;
4122;SDS011;2075;51.062;6.920;2022-11-06T06:45:20;6.13;;;3.07;;
4122;SDS011;2075;51.062;6.920;2022-11-06T06:48:06;11.43;;;3.40;;
4122;SDS011;2075;51.062;6.920;2022-11-06T06:50:51;7.27;;;3.50;;
4122;SDS011;2075;51.062;6.920;2022-11-06T06:53:37;9.07;;;3.57;;
4122;SDS011;2075;51.062;6.920;2022-11-06T06:56:22;12.83;;;3.73;;
4122;SDS011;2075;51.062;6.920;2022-11-06T06:59:09;6.70;;;3.30;;
4122;SDS011;2075;51.062;6.920;2022-11-06T07:01:57;4.27;;;3.20;;
4122;SDS011;2075;51.062;6.920;2022-11-06T07:04:42;3.37;;;3.07;;
4122;SDS011;2075;51.062;6.920;2022-11-06T07:07:28;7.93;;;3.90;;
4122;SDS011;2075;51.062;6.920;2022-11-06T07:10:13;7.77;;;3.10;;
4122;SDS011;2075;51.062;6.920;2022-11-06T07:12:59;2.80;;;2.53;;
4122;SDS011;2075;51.062;6.920;2022-11-06T07:15:46;9.73;;;2.90;;
4122;SDS011;2075;51.062;6.920;2022-11-06T07:18:32;6.53;;;3.03;;
4122;SDS011;2075;51.062;6.920;2022-11-06T07:21:17;8.30;;;3.00;;
4122;SDS011;2075;51.062;6.920;2022-11-06T07:24:03;7.03;;;3.10;;
4122;SDS011;2075;51.062;6.920;2022-11-06T07:26:49;9.90;;;3.10;;
4122;SDS011;2075;51.062;6.920;2022-11-06T07:29:35;9.50;;;2.97;;
4122;SDS011;2075;51.062;6.920;2022-11-06T07:32:22;3.40;;;3.10;;
4122;SDS011;2075;51.062;6.920;2022-11-06T07:35:07;4.40;;;2.60;;
4122;SDS011;2075;51.062;6.920;2022-11-06T07:37:53;7.03;;;3.50;;
4122;SDS011;2075;51.062;6.920;2022-11-06T07:40:39;5.77;;;2.77;;
4122;SDS011;2075;51.062;6.920;2022-11-06T07:43:25;5.70;;;3.40;;
4122;SDS011;2075;51.062;6.920;2022-11-06T07:46:11;4.37;;;3.30;;
4122;SDS011;2075;51.062;6.920;2022-11-06T07:48:58;5.50;;;3.03;;
4122;SDS011;2075;51.062;6.920;2022-11-06T07:51:43;5.53;;;3.63;;
4122;SDS011;2075;51.062;6.920;2022-11-06T07:54:29;7.43;;;3.90;;
4122;SDS011;2075;51.062;6.920;2022-11-06T07:57:14;8.70;;;4.10;;
4122;SDS011;2075;51.062;6.920;2022-11-06T07:59:59;8.17;;;4.40;;
4122;SDS011;2075;51.062;6.920;2022-11-06T08:02:46;11.10;;;4.23;;
4122;SDS011;2075;51.062;6.920;2022-11-06T08:05:36;5.63;;;4.07;;
4122;SDS011;2075;51.062;6.920;2022-11-06T08:08:21;6.60;;;3.93;;
4122;SDS011;2075;51.062;6.920;2022-11-06T08:11:07;8.40;;;4.13;;
4122;SDS011;2075;51.062;6.920;2022-11-06T08:13:54;7.63;;;3.60;;
4122;SDS011;2075;51.062;6.920;2022-11-06T08:16:40;20.27;;;5.30;;
4122;SDS011;2075;51.062;6.920;2022-11-06T08:19:25;4.37;;;3.73;;
4122;SDS011;2075;51.062;6.920;2022-11-06T08:22:12;5.93;;;3.60;;
4122;SDS011;2075;51.062;6.920;2022-11-06T08:24:59;8.87;;;3.50;;
4122;SDS011;2075;51.062;6.920;2022-11-06T08:27:45;5.07;;;3.13;;
4122;SDS011;2075;51.062;6.920;2022-11-06T08:30:30;10.67;;;3.90;;
4122;SDS011;2075;51.062;6.920;2022-11-06T08:33:16;8.70;;;3.63;;
4122;SDS011;2075;51.062;6.920;2022-11-06T08:36:02;10.57;;;3.10;;
4122;SDS011;2075;51.062;6.920;2022-11-06T08:38:50;5.13;;;3.13;;
4122;SDS011;2075;51.062;6.920;2022-11-06T08:41:37;7.70;;;3.10;;
4122;SDS011;2075;51.062;6.920;2022-11-06T08:44:22;5.27;;;3.30;;
4122;SDS011;2075;51.062;6.920;2022-11-06T08:47:08;6.47;;;3.10;;
4122;SDS011;2075;51.062;6.920;2022-11-06T08:49:54;5.97;;;3.10;;
4122;SDS011;2075;51.062;6.920;2022-11-06T08:52:39;5.50;;;2.97;;
4122;SDS011;2075;51.062;6.920;2022-11-06T08:55:26;4.10;;;2.73;;
4122;SDS011;2075;51.062;6.920;2022-11-06T08:58:12;6.47;;;2.90;;
4122;SDS011;2075;51.062;6.920;2022-11-06T09:00:57;4.37;;;2.70;;
4122;SDS011;2075;51.062;6.920;2022-11-06T09:03:43;5.10;;;3.10;;
4122;SDS011;2075;51.062;6.920;2022-11-06T09:06:28;5.90;;;2.57;;
4122;SDS011;2075;51.062;6.920;2022-11-06T09:09:14;12.00;;;2.73;;
4122;SDS011;2075;51.062;6.920;2022-11-06T09:12:04;6.83;;;2.83;;
4122;SDS011;2075;51.062;6.920;2022-11-06T09:14:50;13.77;;;3.10;;
4122;SDS011;2075;51.062;6.920;2022-11-06T09:17:40;5.47;;;2.70;;
4122;SDS011;2075;51.062;6.920;2022-11-06T09:20:27;13.70;;;3.43;;
4122;SDS011;2075;51.062;6.920;2022-11-06T09:23:12;7.93;;;3.00;;
4122;SDS011;2075;51.062;6.920;2022-11-06T09:25:58;8.97;;;3.20;;
4122;SDS011;2075;51.062;6.920;2022-11-06T09:28:46;4.10;;;3.20;;
4122;SDS011;2075;51.062;6.920;2022-11-06T09:31:31;8.00;;;3.77;;
4122;SDS011;2075;51.062;6.920;2022-11-06T09:34:17;6.10;;;2.97;;
4122;SDS011;2075;51.062;6.920;2022-11-06T09:37:02;8.70;;;2.97;;
4122;SDS011;2075;51.062;6.920;2022-11-06T09:39:48;7.72;;;3.63;;
4122;SDS011;2075;51.062;6.920;2022-11-06T09:42:36;6.20;;;3.13;;
4122;SDS011;2075;51.062;6.920;2022-11-06T09:45:37;14.02;;;3.90;;
4122;SDS011;2075;51.062;6.920;2022-11-06T09:48:25;8.57;;;3.27;;
4122;SDS011;2075;51.062;6.920;2022-11-06T09:51:18;6.57;;;4.00;;
4122;SDS011;2075;51.062;6.920;2022-11-06T09:54:16;10.00;;;4.70;;
4122;SDS011;2075;51.062;6.920;2022-11-06T09:57:08;16.67;;;6.53;;
4122;SDS011;2075;51.062;6.920;2022-11-06T09:59:57;6.80;;;3.07;;
4122;SDS011;2075;51.062;6.920;2022-11-06T10:02:49;5.37;;;3.70;;
4122;SDS011;2075;51.062;6.920;2022-11-06T10:05:37;2.73;;;2.50;;
4122;SDS011;2075;51.062;6.920;2022-11-06T10:08:26;7.20;;;3.00;;
4122;SDS011;2075;51.062;6.920;2022-11-06T10:11:21;4.97;;;2.83;;
4122;SDS011;2075;51.062;6.920;2022-11-06T10:14:27;8.47;;;3.30;;
4122;SDS011;2075;51.062;6.920;2022-11-06T10:17:27;5.20;;;2.60;;
4122;SDS011;2075;51.062;6.920;2022-11-06T10:20:24;7.57;;;2.57;;
4122;SDS011;2075;51.062;6.920;2022-11-06T10:23:18;5.43;;;2.90;;
4122;SDS011;2075;51.062;6.920;2022-11-06T10:26:08;7.67;;;2.90;;
4122;SDS011;2075;51.062;6.920;2022-11-06T10:32:21;2.20;;;1.87;;
4122;SDS011;2075;51.062;6.920;2022-11-06T10:35:27;5.23;;;2.67;;
4122;SDS011;2075;51.062;6.920;2022-11-06T10:38:17;6.10;;;2.90;;
4122;SDS011;2075;51.062;6.920;2022-11-06T10:41:09;4.00;;;2.00;;
4122;SDS011;2075;51.062;6.920;2022-11-06T10:44:01;6.40;;;3.00;;
4122;SDS011;2075;51.062;6.920;2022-11-06T10:46:51;6.03;;;3.30;;
4122;SDS011;2075;51.062;6.920;2022-11-06T10:49:40;6.40;;;3.17;;
4122;SDS011;2075;51.062;6.920;2022-11-06T10:55:47;7.13;;;2.97;;
4122;SDS011;2075;51.062;6.920;2022-11-06T10:58:42;16.63;;;3.07;;
4122;SDS011;2075;51.062;6.920;2022-11-06T11:01:28;6.50;;;3.50;;
4122;SDS011;2075;51.062;6.920;2022-11-06T11:04:13;5.40;;;3.00;;
4122;SDS011;2075;51.062;6.920;2022-11-06T11:07:01;5.10;;;3.20;;
4122;SDS011;2075;51.062;6.920;2022-11-06T11:09:58;8.50;;;3.20;;
4122;SDS011;2075;51.062;6.920;2022-11-06T11:13:04;6.27;;;3.00;;
4122;SDS011;2075;51.062;6.920;2022-11-06T11:15:50;4.13;;;2.80;;
4122;SDS011;2075;51.062;6.920;2022-11-06T11:18:35;2.90;;;2.67;;
4122;SDS011;2075;51.062;6.920;2022-11-06T11:21:22;5.47;;;3.17;;
4122;SDS011;2075;51.062;6.920;2022-11-06T11:24:10;6.13;;;3.20;;
4122;SDS011;2075;51.062;6.920;2022-11-06T11:26:58;4.97;;;2.83;;
4122;SDS011;2075;51.062;6.920;2022-11-06T11:29:45;8.93;;;3.30;;
4122;SDS011;2075;51.062;6.920;2022-11-06T11:32:33;3.10;;;2.73;;
4122;SDS011;2075;51.062;6.920;2022-11-06T11:35:24;5.20;;;3.43;;
4122;SDS011;2075;51.062;6.920;2022-11-06T11:38:12;8.50;;;3.60;;
4122;SDS011;2075;51.062;6.920;2022-11-06T11:41:04;4.97;;;3.10;;
4122;SDS011;2075;51.062;6.920;2022-11-06T11:43:57;8.97;;;3.20;;
4122;SDS011;2075;51.062;6.920;2022-11-06T11:46:49;7.40;;;3.27;;
4122;SDS011;2075;51.062;6.920;2022-11-06T11:49:36;6.00;;;3.17;;
4122;SDS011;2075;51.062;6.920;2022-11-06T11:52:22;3.90;;;2.50;;
4122;SDS011;2075;51.062;6.920;2022-11-06T11:55:12;5.70;;;2.80;;
4122;SDS011;2075;51.062;6.920;2022-11-06T11:58:00;6.20;;;2.83;;
4122;SDS011;2075;51.062;6.920;2022-11-06T12:00:49;5.83;;;2.87;;
4122;SDS011;2075;51.062;6.920;2022-11-06T12:03:38;8.20;;;3.40;;
4122;SDS011;2075;51.062;6.920;2022-11-06T12:06:26;5.25;;;3.58;;
4122;SDS011;2075;51.062;6.920;2022-11-06T12:09:12;4.10;;;2.30;;
4122;SDS011;2075;51.062;6.920;2022-11-06T12:11:58;6.00;;;3.53;;
4122;SDS011;2075;51.062;6.920;2022-11-06T12:14:44;2.83;;;2.47;;
4122;SDS011;2075;51.062;6.920;2022-11-06T12:17:31;5.90;;;2.80;;
4122;SDS011;2075;51.062;6.920;2022-11-06T12:20:20;4.57;;;2.80;;
4122;SDS011;2075;51.062;6.920;2022-11-06T12:23:11;5.13;;;2.87;;
4122;SDS011;2075;51.062;6.920;2022-11-06T12:26:02;11.90;;;3.53;;
4122;SDS011;2075;51.062;6.920;2022-11-06T12:28:53;4.77;;;3.40;;
4122;SDS011;2075;51.062;6.920;2022-11-06T12:31:44;4.17;;;3.17;;
4122;SDS011;2075;51.062;6.920;2022-11-06T12:34:37;5.27;;;2.90;;
4122;SDS011;2075;51.062;6.920;2022-11-06T12:37:34;8.40;;;3.40;;
4122;SDS011;2075;51.062;6.920;2022-11-06T12:40:29;6.30;;;2.90;;
4122;SDS011;2075;51.062;6.920;2022-11-06T12:43:19;6.65;;;3.60;;
4122;SDS011;2075;51.062;6.920;2022-11-06T12:46:21;3.93;;;2.67;;
4122;SDS011;2075;51.062;6.920;2022-11-06T12:49:26;5.90;;;2.63;;
4122;SDS011;2075;51.062;6.920;2022-11-06T12:52:27;8.27;;;2.90;;
4122;SDS011;2075;51.062;6.920;2022-11-06T12:55:28;5.80;;;2.50;;
4122;SDS011;2075;51.062;6.920;2022-11-06T12:58:38;3.73;;;2.73;;
4122;SDS011;2075;51.062;6.920;2022-11-06T13:01:34;7.47;;;3.00;;
4122;SDS011;2075;51.062;6.920;2022-11-06T13:04:34;3.83;;;2.10;;
4122;SDS011;2075;51.062;6.920;2022-11-06T13:10:50;3.90;;;2.80;;
4122;SDS011;2075;51.062;6.920;2022-11-06T13:13:48;4.93;;;2.70;;
4122;SDS011;2075;51.062;6.920;2022-11-06T13:16:47;5.95;;;2.90;;
4122;SDS011;2075;51.062;6.920;2022-11-06T13:19:40;5.40;;;3.03;;
4122;SDS011;2075;51.062;6.920;2022-11-06T13:22:33;2.40;;;2.20;;
4122;SDS011;2075;51.062;6.920;2022-11-06T13:25:26;7.70;;;3.03;;
4122;SDS011;2075;51.062;6.920;2022-11-06T13:28:22;4.53;;;2.87;;
4122;SDS011;2075;51.062;6.920;2022-11-06T13:31:12;5.63;;;2.30;;
4122;SDS011;2075;51.062;6.920;2022-11-06T13:34:01;4.60;;;2.30;;
4122;SDS011;2075;51.062;6.920;2022-11-06T13:36:59;5.00;;;2.27;;
4122;SDS011;2075;51.062;6.920;2022-11-06T13:39:47;2.67;;;2.13;;
4122;SDS011;2075;51.062;6.920;2022-11-06T13:42:41;3.50;;;2.47;;
4122;SDS011;2075;51.062;6.920;2022-11-06T13:45:32;3.87;;;2.07;;
4122;SDS011;2075;51.062;6.920;2022-11-06T13:48:29;11.30;;;2.30;;
4122;SDS011;2075;51.062;6.920;2022-11-06T13:51:20;3.20;;;2.30;;
4122;SDS011;2075;51.062;6.920;2022-11-06T13:57:41;2.83;;;2.00;;
4122;SDS011;2075;51.062;6.920;2022-11-06T14:00:47;3.43;;;2.00;;
4122;SDS011;2075;51.062;6.920;2022-11-06T14:03:46;4.10;;;1.90;;
4122;SDS011;2075;51.062;6.920;2022-11-06T14:06:52;2.00;;;1.87;;
4122;SDS011;2075;51.062;6.920;2022-11-06T14:09:41;6.97;;;2.33;;
4122;SDS011;2075;51.062;6.920;2022-11-06T14:12:29;5.63;;;2.20;;
4122;SDS011;2075;51.062;6.920;2022-11-06T14:15:21;5.03;;;2.93;;
4122;SDS011;2075;51.062;6.920;2022-11-06T14:18:12;5.20;;;4.27;;
4122;SDS011;2075;51.062;6.920;2022-11-06T14:24:28;6.97;;;3.17;;
4122;SDS011;2075;51.062;6.920;2022-11-06T14:30:44;9.27;;;3.50;;
4122;SDS011;2075;51.062;6.920;2022-11-06T14:36:46;4.40;;;2.43;;
4122;SDS011;2075;51.062;6.920;2022-11-06T14:42:47;5.13;;;2.37;;
4122;SDS011;2075;51.062;6.920;2022-11-06T14:45:33;3.43;;;3.13;;
4122;SDS011;2075;51.062;6.920;2022-11-06T14:48:27;28.67;;;8.97;;
4122;SDS011;2075;51.062;6.920;2022-11-06T14:51:14;7.97;;;3.33;;
4122;SDS011;2075;51.062;6.920;2022-11-06T14:54:02;6.23;;;4.03;;
4122;SDS011;2075;51.062;6.920;2022-11-06T14:57:03;11.80;;;6.50;;
4122;SDS011;2075;51.062;6.920;2022-11-06T14:59:49;3.77;;;2.67;;
4122;SDS011;2075;51.062;6.920;2022-11-06T15:02:43;5.50;;;2.20;;
4122;SDS011;2075;51.062;6.920;2022-11-06T15:05:30;4.23;;;2.07;;
4122;SDS011;2075;51.062;6.920;2022-11-06T15:11:53;8.83;;;4.67;;
4122;SDS011;2075;51.062;6.920;2022-11-06T15:14:54;9.63;;;5.20;;
4122;SDS011;2075;51.062;6.920;2022-11-06T15:17:50;3.00;;;2.70;;
4122;SDS011;2075;51.062;6.920;2022-11-06T15:20:37;5.03;;;2.93;;
4122;SDS011;2075;51.062;6.920;2022-11-06T15:23:25;6.20;;;3.63;;
4122;SDS011;2075;51.062;6.920;2022-11-06T15:26:17;10.00;;;4.03;;
4122;SDS011;2075;51.062;6.920;2022-11-06T15:29:10;3.27;;;3.00;;
4122;SDS011;2075;51.062;6.920;2022-11-06T15:32:04;4.10;;;3.10;;
4122;SDS011;2075;51.062;6.920;2022-11-06T15:34:57;2.60;;;2.40;;
4122;SDS011;2075;51.062;6.920;2022-11-06T15:37:49;5.27;;;2.47;;
4122;SDS011;2075;51.062;6.920;2022-11-06T15:40:37;7.93;;;3.37;;
4122;SDS011;2075;51.062;6.920;2022-11-06T15:43:26;2.40;;;2.20;;
4122;SDS011;2075;51.062;6.920;2022-11-06T15:46:15;3.43;;;2.40;;
4122;SDS011;2075;51.062;6.920;2022-11-06T15:49:15;12.43;;;2.87;;
4122;SDS011;2075;51.062;6.920;2022-11-06T15:52:02;8.13;;;3.10;;
4122;SDS011;2075;51.062;6.920;2022-11-06T15:54:51;4.83;;;3.60;;
4122;SDS011;2075;51.062;6.920;2022-11-06T15:57:39;3.40;;;3.10;;
4122;SDS011;2075;51.062;6.920;2022-11-06T16:00:25;4.67;;;2.93;;
4122;SDS011;2075;51.062;6.920;2022-11-06T16:03:12;4.57;;;3.70;;
4122;SDS011;2075;51.062;6.920;2022-11-06T16:06:00;3.83;;;2.37;;
4122;SDS011;2075;51.062;6.920;2022-11-06T16:08:48;5.20;;;2.93;;
4122;SDS011;2075;51.062;6.920;2022-11-06T16:11:36;8.93;;;2.90;;
4122;SDS011;2075;51.062;6.920;2022-11-06T16:14:22;2.93;;;2.63;;
4122;SDS011;2075;51.062;6.920;2022-11-06T16:17:08;5.23;;;2.53;;
4122;SDS011;2075;51.062;6.920;2022-11-06T16:19:55;3.90;;;2.67;;
4122;SDS011;2075;51.062;6.920;2022-11-06T16:22:43;5.70;;;3.40;;
4122;SDS011;2075;51.062;6.920;2022-11-06T16:25:29;5.80;;;3.20;;
4122;SDS011;2075;51.062;6.920;2022-11-06T16:28:16;7.57;;;3.77;;
4122;SDS011;2075;51.062;6.920;2022-11-06T16:31:05;4.57;;;3.23;;
4122;SDS011;2075;51.062;6.920;2022-11-06T16:33:54;4.73;;;3.43;;
4122;SDS011;2075;51.062;6.920;2022-11-06T16:36:50;4.60;;;4.00;;
4122;SDS011;2075;51.062;6.920;2022-11-06T16:39:45;6.47;;;5.00;;
4122;SDS011;2075;51.062;6.920;2022-11-06T16:42:31;8.17;;;5.13;;
4122;SDS011;2075;51.062;6.920;2022-11-06T16:45:20;11.40;;;6.00;;
4122;SDS011;2075;51.062;6.920;2022-11-06T16:48:25;6.00;;;4.30;;
4122;SDS011;2075;51.062;6.920;2022-11-06T16:51:27;7.73;;;5.67;;
4122;SDS011;2075;51.062;6.920;2022-11-06T16:54:18;8.33;;;6.13;;
4122;SDS011;2075;51.062;6.920;2022-11-06T16:57:07;10.03;;;6.07;;
4122;SDS011;2075;51.062;6.920;2022-11-06T16:59:59;4.70;;;4.30;;
4122;SDS011;2075;51.062;6.920;2022-11-06T17:02:49;5.63;;;4.30;;
4122;SDS011;2075;51.062;6.920;2022-11-06T17:05:36;5.33;;;3.63;;
4122;SDS011;2075;51.062;6.920;2022-11-06T17:08:23;5.37;;;3.53;;
4122;SDS011;2075;51.062;6.920;2022-11-06T17:11:15;5.20;;;4.00;;
4122;SDS011;2075;51.062;6.920;2022-11-06T17:14:09;6.27;;;4.23;;
4122;SDS011;2075;51.062;6.920;2022-11-06T17:17:01;4.13;;;3.53;;
4122;SDS011;2075;51.062;6.920;2022-11-06T17:19:49;4.60;;;3.50;;
4122;SDS011;2075;51.062;6.920;2022-11-06T17:22:35;9.60;;;3.73;;
4122;SDS011;2075;51.062;6.920;2022-11-06T17:25:20;9.70;;;5.87;;
4122;SDS011;2075;51.062;6.920;2022-11-06T17:28:07;6.23;;;4.63;;
4122;SDS011;2075;51.062;6.920;2022-11-06T17:30:52;7.13;;;4.67;;
4122;SDS011;2075;51.062;6.920;2022-11-06T17:33:39;4.67;;;3.77;;
4122;SDS011;2075;51.062;6.920;2022-11-06T17:36:27;7.87;;;4.93;;
4122;SDS011;2075;51.062;6.920;2022-11-06T17:39:15;9.43;;;4.90;;
4122;SDS011;2075;51.062;6.920;2022-11-06T17:42:00;6.47;;;4.50;;
4122;SDS011;2075;51.062;6.920;2022-11-06T17:44:46;6.43;;;4.40;;
4122;SDS011;2075;51.062;6.920;2022-11-06T17:47:32;6.63;;;4.60;;
4122;SDS011;2075;51.062;6.920;2022-11-06T17:50:18;5.23;;;4.50;;
4122;SDS011;2075;51.062;6.920;2022-11-06T17:53:05;4.63;;;4.10;;
4122;SDS011;2075;51.062;6.920;2022-11-06T17:55:51;7.80;;;4.97;;
4122;SDS011;2075;51.062;6.920;2022-11-06T17:58:36;8.23;;;5.13;;
4122;SDS011;2075;51.062;6.920;2022-11-06T18:01:22;5.17;;;3.70;;
4122;SDS011;2075;51.062;6.920;2022-11-06T18:04:07;6.90;;;4.50;;